createdAt,value
2023-01-12T00:00:06.581Z,96886.02
2023-01-12T00:11:07.990Z,96900.56
2023-01-12T00:22:33.825Z,96901.50
2023-01-12T00:33:00.393Z,96911.96
2023-01-12T00:43:23.385Z,96923.15
2023-01-12T00:53:58.711Z,96938.88
2023-01-12T01:04:52.159Z,96935.85
2023-01-12T01:15:27.160Z,96926.11
2023-01-12T01:26:06.126Z,96923.84
2023-01-12T01:36:50.482Z,96918.71
2023-01-12T01:47:26.270Z,96921.23
2023-01-12T01:58:02.323Z,96923.95
2023-01-12T02:08:38.714Z,96926.39
2023-01-12T02:19:47.873Z,96935.29
2023-01-12T02:31:18.300Z,96939.70
2023-01-12T02:42:33.550Z,96943.45
2023-01-12T02:53:33.680Z,96958.70
2023-01-12T03:03:42.247Z,96971.23
2023-01-12T03:13:57.976Z,96963.48
2023-01-12T03:24:14.353Z,96962.85
2023-01-12T03:34:34.692Z,96965.23
2023-01-12T03:45:40.961Z,96959.42
2023-01-12T03:55:59.939Z,96973.48
2023-01-12T04:06:09.405Z,96974.48
2023-01-12T04:16:13.542Z,96974.45
2023-01-12T04:26:21.267Z,96971.14
2023-01-12T04:36:35.434Z,96973.88
2023-01-12T04:47:02.124Z,96969.02
2023-01-12T04:58:16.765Z,96973.96
2023-01-12T05:09:10.973Z,96973.16
2023-01-12T05:20:16.304Z,96973.84
2023-01-12T05:30:23.334Z,96979.48
2023-01-12T05:41:18.269Z,96979.92
2023-01-12T05:51:42.380Z,96992.90
2023-01-12T06:02:21.884Z,97010.66
2023-01-12T06:13:13.466Z,97021.02
2023-01-12T06:24:09.734Z,97034.16
2023-01-12T06:34:35.684Z,97040.04
2023-01-12T06:45:32.929Z,97049.70
2023-01-12T06:56:34.045Z,97050.47
2023-01-12T07:07:46.586Z,97052.55
2023-01-12T07:19:05.054Z,97063.66
2023-01-12T07:29:50.833Z,97054.91
2023-01-12T07:40:58.659Z,97061.62
2023-01-12T07:51:53.235Z,97061.16
2023-01-12T08:03:00.334Z,97069.35
2023-01-12T08:13:25.022Z,97065.95
2023-01-12T08:24:14.488Z,97083.73
2023-01-12T08:35:03.940Z,97095.91
2023-01-12T08:46:28.880Z,97102.06
2023-01-12T08:57:23.827Z,97110.86
2023-01-12T09:07:43.803Z,97100.67
2023-01-12T09:18:42.125Z,97089.02
2023-01-12T09:29:40.770Z,97080.02
2023-01-12T09:40:35.711Z,97081.67
2023-01-12T09:52:04.886Z,97068.20
2023-01-12T10:03:12.274Z,97060.59
2023-01-12T10:14:26.049Z,97059.92
2023-01-12T10:25:51.134Z,97057.90
2023-01-12T10:37:17.965Z,97044.80
2023-01-12T10:48:21.069Z,97027.53
2023-01-12T10:59:26.501Z,97010.16
2023-01-12T11:10:50.318Z,97004.16
2023-01-12T11:22:16.894Z,96998.81
2023-01-12T11:33:24.620Z,96984.21
2023-01-12T11:44:37.158Z,96978.77
2023-01-12T11:55:42.726Z,96962.79
2023-01-12T12:06:46.563Z,96965.98
2023-01-12T12:18:20.200Z,96967.22
2023-01-12T12:29:27.492Z,96969.48
2023-01-12T12:40:46.314Z,96959.16
2023-01-12T12:51:59.932Z,96950.95
2023-01-12T13:03:20.926Z,96949.17
2023-01-12T13:14:31.651Z,96947.38
2023-01-12T13:25:49.037Z,96945.41
2023-01-12T13:36:46.541Z,96938.33
2023-01-12T13:47:55.075Z,96946.38
2023-01-12T13:59:22.458Z,96952.46
2023-01-12T14:11:08.813Z,96952.20
2023-01-12T14:22:05.305Z,96948.68
2023-01-12T14:33:29.887Z,96941.48
2023-01-12T14:44:35.817Z,96942.55
2023-01-12T14:56:19.597Z,96937.92
2023-01-12T15:07:44.477Z,96929.69
2023-01-12T15:19:07.752Z,96914.56
2023-01-12T15:30:18.516Z,96904.60
2023-01-12T15:41:41.612Z,96907.66
2023-01-12T15:53:05.401Z,96905.59
2023-01-12T16:04:45.802Z,96909.06
2023-01-12T16:15:49.479Z,96907.23
2023-01-12T16:26:56.931Z,96901.19
2023-01-12T16:37:33.681Z,96906.80
2023-01-12T16:48:51.669Z,96907.45
2023-01-12T17:00:16.572Z,96895.63
2023-01-12T17:11:47.360Z,96882.53
2023-01-12T17:22:52.239Z,96868.40
2023-01-12T17:34:07.080Z,96872.52
2023-01-12T17:45:04.299Z,96874.34
2023-01-12T17:56:10.229Z,96882.95
2023-01-12T18:07:35.223Z,96887.23
2023-01-12T18:18:47.009Z,96885.36
2023-01-12T18:30:02.831Z,96885.30
2023-01-12T18:40:40.494Z,96888.40
2023-01-12T18:51:39.875Z,96881.17
2023-01-12T19:02:31.525Z,96864.49
2023-01-12T19:12:50.590Z,96852.38
2023-01-12T19:23:25.055Z,96855.50
2023-01-12T19:34:15.064Z,96845.08
2023-01-12T19:45:10.620Z,96835.39
2023-01-12T19:56:29.696Z,96824.15
2023-01-12T20:07:31.068Z,96822.58
2023-01-12T20:19:19.186Z,96816.88
2023-01-12T20:30:50.443Z,96809.63
2023-01-12T20:41:55.414Z,96803.48
2023-01-12T20:52:55.011Z,96807.46
2023-01-12T21:03:46.860Z,96812.78
2023-01-12T21:14:34.507Z,96812.27
2023-01-12T21:24:52.612Z,96803.41
2023-01-12T21:35:41.205Z,96807.75
2023-01-12T21:46:34.330Z,96798.98
2023-01-12T21:57:01.795Z,96790.14
2023-01-12T22:07:09.063Z,96779.46
2023-01-12T22:17:46.458Z,96780.31
2023-01-12T22:28:32.670Z,96787.98
2023-01-12T22:39:04.251Z,96782.59
2023-01-12T22:49:58.599Z,96781.73
2023-01-12T23:00:49.235Z,96763.08
2023-01-12T23:11:47.052Z,96750.71
2023-01-12T23:22:05.147Z,96737.82
2023-01-12T23:32:58.774Z,96733.64
2023-01-12T23:44:02.123Z,96726.68
2023-01-12T23:55:27.084Z,96729.27
